Time;durP1;ratioP1;P1;durP2;ratioP2;P2;SDS_P1;SDS_P2;PMS_P1;PMS_P2;Temp;Humidity;BMP_temperature;BMP_pressure;BME280_temperature;BME280_humidity;BME280_pressure;Samples;Min_cycle;Max_cycle;Signal;HPM_P1;HPM_P2
2021/05/16 00:01:36;;;;;;;1.83;1.73;;;13.60;99.90;;;;;;5010927;28;20545;-76
2021/05/16 00:04:02;;;;;;;2.00;1.90;;;13.50;99.90;;;;;;5010504;28;20493;-76
2021/05/16 00:06:28;;;;;;;2.43;1.70;;;13.40;99.90;;;;;;5010758;28;20496;-76
2021/05/16 00:08:54;;;;;;;2.33;1.83;;;13.40;99.90;;;;;;5009632;28;20469;-78
2021/05/16 00:11:20;;;;;;;2.10;2.00;;;13.30;99.90;;;;;;5030389;28;20498;-76
2021/05/16 00:13:46;;;;;;;2.80;2.20;;;13.30;99.90;;;;;;5030263;28;21014;-76
2021/05/16 00:16:12;;;;;;;1.97;1.87;;;13.20;99.90;;;;;;5030304;28;20449;-76
2021/05/16 00:18:39;;;;;;;1.60;1.50;;;13.20;99.90;;;;;;5030253;28;21002;-76
2021/05/16 00:21:05;;;;;;;4.80;2.33;;;13.30;99.90;;;;;;5030113;28;20484;-76
2021/05/16 00:23:32;;;;;;;3.50;3.10;;;13.30;99.90;;;;;;5029982;28;20527;-77
2021/05/16 00:25:58;;;;;;;2.13;1.90;;;13.30;99.90;;;;;;5030329;28;20487;-76
2021/05/16 00:28:24;;;;;;;1.90;1.80;;;13.30;99.90;;;;;;5030230;28;21022;-77
2021/05/16 00:30:51;;;;;;;2.50;1.63;;;13.30;99.90;;;;;;5030215;28;20492;-76
2021/05/16 00:33:18;;;;;;;3.87;2.20;;;13.30;99.90;;;;;;5030276;28;20459;-76
2021/05/16 00:35:45;;;;;;;2.20;2.00;;;13.30;99.90;;;;;;5030098;28;20488;-76
2021/05/16 00:38:11;;;;;;;1.63;1.53;;;13.30;99.90;;;;;;5029978;28;20481;-76
2021/05/16 00:40:37;;;;;;;1.50;1.40;;;13.30;99.90;;;;;;5030179;28;20561;-77
2021/05/16 00:43:03;;;;;;;2.10;1.90;;;13.30;99.90;;;;;;5029919;28;20465;-76
2021/05/16 00:45:29;;;;;;;1.67;1.53;;;13.40;99.90;;;;;;5029861;28;20449;-76
2021/05/16 00:47:57;;;;;;;1.83;1.50;;;13.40;99.90;;;;;;5030045;28;20479;-76
2021/05/16 00:50:25;;;;;;;1.87;1.77;;;13.40;99.90;;;;;;5029760;28;20544;-76
2021/05/16 00:52:52;;;;;;;2.10;1.60;;;13.40;99.90;;;;;;5029881;28;20485;-75
2021/05/16 00:55:20;;;;;;;2.93;1.40;;;13.40;99.90;;;;;;5029883;28;20489;-74
2021/05/16 00:57:46;;;;;;;1.70;1.60;;;13.30;99.90;;;;;;5029944;28;20504;-74
2021/05/16 01:00:14;;;;;;;3.97;1.73;;;13.30;99.90;;;;;;5029827;28;20477;-74
2021/05/16 01:02:41;;;;;;;2.10;1.87;;;13.40;99.90;;;;;;5029547;28;20560;-74
2021/05/16 01:05:09;;;;;;;2.00;1.90;;;13.40;99.90;;;;;;5029745;28;20537;-74
2021/05/16 01:07:36;;;;;;;1.70;1.60;;;13.40;99.90;;;;;;5029451;28;20543;-75
2021/05/16 01:10:06;;;;;;;1.70;1.60;;;13.30;99.90;;;;;;5029739;28;20453;-75
2021/05/16 01:12:39;;;;;;;1.73;1.63;;;13.40;99.90;;;;;;5029630;28;20472;-74
2021/05/16 01:15:07;;;;;;;1.57;1.47;;;13.40;99.90;;;;;;5029671;28;20457;-74
2021/05/16 01:17:34;;;;;;;1.60;1.50;;;13.40;99.90;;;;;;5029562;28;20510;-74
2021/05/16 01:20:00;;;;;;;2.47;1.73;;;13.40;99.90;;;;;;5029286;28;20544;-74
2021/05/16 01:22:26;;;;;;;1.83;1.73;;;13.30;99.90;;;;;;5029735;28;20473;-74
2021/05/16 01:24:53;;;;;;;1.70;1.60;;;13.30;99.90;;;;;;5029360;28;20625;-74
2021/05/16 01:27:20;;;;;;;1.77;1.67;;;13.20;99.90;;;;;;5029519;28;20449;-74
2021/05/16 01:29:46;;;;;;;1.73;1.63;;;13.20;99.90;;;;;;5029542;28;20804;-74
2021/05/16 01:32:12;;;;;;;1.80;1.70;;;13.10;99.90;;;;;;5029220;28;20543;-74
2021/05/16 01:34:40;;;;;;;3.77;3.07;;;13.00;99.90;;;;;;5029244;28;20485;-75
2021/05/16 01:37:06;;;;;;;2.60;2.40;;;12.90;99.90;;;;;;5029138;28;20578;-75
2021/05/16 01:39:34;;;;;;;2.27;2.07;;;12.90;99.90;;;;;;5029511;28;20449;-75
2021/05/16 01:42:00;;;;;;;2.30;1.80;;;12.80;99.90;;;;;;5029322;28;20603;-75
2021/05/16 01:44:26;;;;;;;1.53;1.43;;;12.80;99.90;;;;;;5029217;28;20555;-75
2021/05/16 01:46:52;;;;;;;1.80;1.70;;;12.80;99.90;;;;;;5029212;28;20458;-75
2021/05/16 01:49:19;;;;;;;2.73;1.80;;;12.70;99.90;;;;;;5029729;28;20815;-74
2021/05/16 01:51:45;;;;;;;1.80;1.70;;;12.70;99.90;;;;;;5032189;28;20492;-74
2021/05/16 01:54:11;;;;;;;2.87;1.60;;;12.60;99.90;;;;;;5032722;28;20484;-75
2021/05/16 01:56:38;;;;;;;1.63;1.53;;;12.50;99.90;;;;;;5032414;28;20477;-74
2021/05/16 01:59:04;;;;;;;1.70;1.60;;;12.40;99.90;;;;;;5032478;28;20498;-74
2021/05/16 02:01:31;;;;;;;1.63;1.53;;;12.40;99.90;;;;;;5032393;28;20460;-75
2021/05/16 02:03:57;;;;;;;2.30;1.67;;;12.30;99.90;;;;;;5032113;28;20576;-75
2021/05/16 02:06:24;;;;;;;2.13;2.03;;;12.30;99.90;;;;;;5032512;28;20481;-75
2021/05/16 02:08:51;;;;;;;1.83;1.73;;;12.20;99.90;;;;;;5032512;28;20477;-75
2021/05/16 02:11:17;;;;;;;2.30;2.10;;;12.20;99.90;;;;;;5032234;28;20793;-75
2021/05/16 02:13:44;;;;;;;4.27;2.40;;;12.10;99.90;;;;;;5032286;28;20549;-75
2021/05/16 02:16:11;;;;;;;2.67;2.47;;;12.10;99.90;;;;;;5032192;28;20575;-75
2021/05/16 02:18:38;;;;;;;2.37;2.10;;;12.10;99.90;;;;;;5032422;28;20481;-75
2021/05/16 02:21:05;;;;;;;2.37;2.17;;;12.00;99.90;;;;;;5032312;28;20602;-74
2021/05/16 02:23:31;;;;;;;2.57;2.10;;;12.00;99.90;;;;;;5032209;28;20534;-75
2021/05/16 02:25:57;;;;;;;2.40;2.23;;;11.90;99.90;;;;;;5032004;28;20485;-75
2021/05/16 02:28:24;;;;;;;2.80;2.60;;;11.90;99.90;;;;;;5032189;28;20449;-74
2021/05/16 02:30:51;;;;;;;2.37;2.27;;;11.80;99.90;;;;;;5031704;28;20540;-74
2021/05/16 02:33:17;;;;;;;2.63;2.30;;;11.80;99.90;;;;;;5032119;28;20549;-75
2021/05/16 02:35:44;;;;;;;2.20;2.00;;;11.70;99.90;;;;;;5031975;28;20481;-75
2021/05/16 02:38:10;;;;;;;2.47;2.27;;;11.70;99.90;;;;;;5031857;28;21035;-74
2021/05/16 02:40:36;;;;;;;2.23;2.03;;;11.70;99.90;;;;;;5031948;28;20451;-74
2021/05/16 02:43:02;;;;;;;2.00;1.90;;;11.60;99.90;;;;;;5031652;28;20544;-75
2021/05/16 02:45:28;;;;;;;2.40;2.30;;;11.60;99.90;;;;;;5031704;28;20458;-75
2021/05/16 02:47:55;;;;;;;1.90;1.80;;;11.60;99.90;;;;;;5031781;28;20964;-74
2021/05/16 02:50:21;;;;;;;2.43;2.13;;;11.50;99.90;;;;;;5031908;28;20912;-75
2021/05/16 02:52:47;;;;;;;2.20;2.10;;;11.50;99.90;;;;;;5031564;28;20532;-75
2021/05/16 02:55:14;;;;;;;2.07;1.97;;;11.50;99.90;;;;;;5031591;28;20507;-75
2021/05/16 02:57:40;;;;;;;2.10;2.00;;;11.50;99.90;;;;;;5031372;28;20454;-74
2021/05/16 03:00:07;;;;;;;2.43;1.93;;;11.40;99.90;;;;;;5031481;28;20506;-74
2021/05/16 03:02:33;;;;;;;2.30;2.20;;;11.40;99.90;;;;;;5030177;28;20511;-74
2021/05/16 03:05:00;;;;;;;2.60;2.10;;;11.40;99.90;;;;;;5031558;28;20929;-75
2021/05/16 03:07:26;;;;;;;2.30;2.20;;;11.40;99.90;;;;;;5031273;28;20492;-75
2021/05/16 03:09:52;;;;;;;2.00;1.90;;;11.40;99.90;;;;;;5031454;28;20450;-75
2021/05/16 03:12:18;;;;;;;2.13;2.03;;;11.40;99.90;;;;;;5031398;28;20453;-75
2021/05/16 03:14:44;;;;;;;1.87;1.77;;;11.30;99.90;;;;;;5031051;28;20485;-75
2021/05/16 03:17:10;;;;;;;3.60;2.53;;;11.30;99.90;;;;;;5031258;28;20485;-75
2021/05/16 03:19:36;;;;;;;2.00;1.80;;;11.30;99.90;;;;;;5031468;28;20524;-75
2021/05/16 03:22:03;;;;;;;2.53;2.40;;;11.30;99.90;;;;;;5031099;28;20500;-75
2021/05/16 03:24:30;;;;;;;3.00;2.10;;;11.30;99.90;;;;;;5031189;28;20519;-75
2021/05/16 03:26:56;;;;;;;1.90;1.80;;;11.30;99.90;;;;;;5030714;28;20964;-75
2021/05/16 03:29:22;;;;;;;4.57;2.23;;;11.30;99.90;;;;;;5039179;28;20519;-75
2021/05/16 03:31:49;;;;;;;2.37;2.17;;;11.30;99.90;;;;;;5050989;28;20546;-75
2021/05/16 03:34:15;;;;;;;2.30;2.10;;;11.30;99.90;;;;;;5050948;28;20463;-75
2021/05/16 03:36:42;;;;;;;2.50;2.30;;;11.30;99.90;;;;;;5050927;28;20892;-75
2021/05/16 03:39:08;;;;;;;2.67;2.47;;;11.30;99.90;;;;;;5050793;28;20455;-75
2021/05/16 03:41:35;;;;;;;2.00;1.90;;;11.30;99.90;;;;;;5050766;28;20531;-75
2021/05/16 03:44:01;;;;;;;2.20;2.10;;;11.40;99.90;;;;;;5050470;28;20579;-75
2021/05/16 03:46:27;;;;;;;1.80;1.70;;;11.40;99.90;;;;;;5050735;28;20449;-75
2021/05/16 03:48:53;;;;;;;2.80;2.17;;;11.60;99.90;;;;;;5050744;28;20445;-75
2021/05/16 03:51:19;;;;;;;2.13;2.03;;;11.70;99.90;;;;;;5050599;28;20455;-75
2021/05/16 03:53:45;;;;;;;2.20;2.00;;;11.80;99.90;;;;;;5050761;28;20552;-75
2021/05/16 03:56:12;;;;;;;2.60;2.40;;;11.80;99.90;;;;;;5050500;28;20874;-75
2021/05/16 03:58:38;;;;;;;2.53;2.20;;;11.80;99.90;;;;;;5050430;27;20970;-75
2021/05/16 04:01:05;;;;;;;3.87;2.00;;;11.80;99.90;;;;;;5050527;28;20540;-75
2021/05/16 04:03:31;;;;;;;2.10;2.00;;;11.80;99.90;;;;;;5050110;28;20516;-75
2021/05/16 04:05:57;;;;;;;2.50;2.30;;;11.80;99.90;;;;;;5050265;28;20499;-74
2021/05/16 04:08:23;;;;;;;2.27;2.07;;;11.70;99.90;;;;;;5050373;28;20547;-75
2021/05/16 04:10:50;;;;;;;2.60;2.40;;;11.70;99.90;;;;;;5048886;28;20453;-75
2021/05/16 04:13:16;;;;;;;3.10;2.20;;;11.80;99.90;;;;;;5049896;28;21151;-75
2021/05/16 04:15:42;;;;;;;3.83;1.67;;;11.80;99.90;;;;;;5010476;28;20511;-75
2021/05/16 04:18:09;;;;;;;2.30;2.20;;;11.80;99.90;;;;;;5010910;28;20485;-75
2021/05/16 04:20:36;;;;;;;2.53;2.37;;;11.80;99.90;;;;;;5010686;28;20943;-75
2021/05/16 04:23:02;;;;;;;2.10;1.90;;;11.90;99.90;;;;;;5010407;28;20907;-75
2021/05/16 04:25:28;;;;;;;2.27;2.00;;;11.90;99.90;;;;;;5010230;28;20565;-75
2021/05/16 04:27:55;;;;;;;2.73;2.60;;;12.00;99.90;;;;;;5028361;28;20540;-75
2021/05/16 04:30:22;;;;;;;2.13;2.03;;;12.10;99.90;;;;;;5030287;28;20488;-75
2021/05/16 04:32:48;;;;;;;4.10;2.40;;;12.30;99.90;;;;;;5030187;28;20723;-75
2021/05/16 04:35:14;;;;;;;2.40;2.30;;;12.40;99.90;;;;;;5029984;28;20544;-75
2021/05/16 04:37:40;;;;;;;2.43;2.13;;;12.60;99.90;;;;;;5030105;28;20506;-75
2021/05/16 04:40:07;;;;;;;2.07;1.97;;;12.70;99.90;;;;;;5029872;28;20853;-75
2021/05/16 04:42:33;;;;;;;1.90;1.80;;;12.80;99.90;;;;;;5030030;28;21015;-75
2021/05/16 04:44:59;;;;;;;4.80;1.70;;;12.90;99.90;;;;;;5029958;28;20484;-75
2021/05/16 04:47:26;;;;;;;1.63;1.53;;;13.00;99.90;;;;;;5029883;28;20454;-75
2021/05/16 04:49:52;;;;;;;2.20;2.00;;;13.10;99.90;;;;;;5029892;28;20483;-76
2021/05/16 04:52:18;;;;;;;1.80;1.70;;;13.40;99.90;;;;;;5029832;28;20552;-75
2021/05/16 04:54:44;;;;;;;1.60;1.50;;;13.70;99.90;;;;;;5029795;28;20464;-75
2021/05/16 04:57:10;;;;;;;1.27;1.17;;;14.00;99.90;;;;;;5029857;28;20449;-75
2021/05/16 04:59:37;;;;;;;1.50;1.40;;;14.20;99.90;;;;;;5029774;28;20489;-75
2021/05/16 05:02:04;;;;;;;1.70;1.60;;;14.40;99.90;;;;;;5029604;28;20889;-76
2021/05/16 05:04:31;;;;;;;2.33;1.70;;;14.50;99.90;;;;;;5029661;28;20483;-75
2021/05/16 05:06:58;;;;;;;2.20;2.00;;;14.50;99.90;;;;;;5029584;28;20525;-75
2021/05/16 05:09:24;;;;;;;1.80;1.70;;;14.60;99.90;;;;;;5029884;28;20480;-75
2021/05/16 05:11:52;;;;;;;1.87;1.43;;;14.70;99.90;;;;;;5029644;28;20453;-75
2021/05/16 05:14:18;;;;;;;1.87;1.60;;;14.70;99.90;;;;;;5021346;28;20450;-75
2021/05/16 05:16:45;;;;;;;3.47;1.67;;;14.70;99.90;;;;;;5009692;28;20515;-75
2021/05/16 05:19:11;;;;;;;1.80;1.70;;;14.80;99.90;;;;;;5009959;28;20462;-74
2021/05/16 05:21:38;;;;;;;2.63;1.50;;;14.80;99.90;;;;;;5009665;28;20461;-75
2021/05/16 05:24:05;;;;;;;1.50;1.40;;;14.90;99.90;;;;;;5009878;28;20525;-75
2021/05/16 05:26:31;;;;;;;1.33;1.23;;;14.90;99.90;;;;;;5018768;28;20484;-75
2021/05/16 05:28:57;;;;;;;3.17;1.30;;;14.90;99.90;;;;;;5033153;28;20481;-75
2021/05/16 05:31:23;;;;;;;1.33;1.23;;;14.90;99.90;;;;;;5032908;28;20544;-75
2021/05/16 05:33:49;;;;;;;1.47;1.37;;;15.00;99.90;;;;;;5032915;28;20496;-75
2021/05/16 05:36:15;;;;;;;1.40;1.30;;;15.00;99.90;;;;;;5032702;28;20536;-74
2021/05/16 05:38:42;;;;;;;1.40;1.30;;;15.10;99.90;;;;;;5032919;28;20940;-74
2021/05/16 05:41:08;;;;;;;2.03;1.93;;;15.20;99.90;;;;;;5032757;28;20551;-74
2021/05/16 05:43:34;;;;;;;2.57;1.70;;;15.30;99.90;;;;;;5032735;28;20560;-75
2021/05/16 05:46:00;;;;;;;2.87;1.73;;;15.40;99.90;;;;;;5032586;28;20986;-75
2021/05/16 05:48:26;;;;;;;2.07;1.87;;;15.60;99.90;;;;;;5032794;28;20544;-75
2021/05/16 05:50:53;;;;;;;1.50;1.40;;;15.90;99.90;;;;;;5032463;28;20540;-74
2021/05/16 05:53:20;;;;;;;2.17;1.40;;;16.00;99.90;;;;;;5032778;28;20453;-74
2021/05/16 05:55:47;;;;;;;1.83;1.33;;;16.20;99.90;;;;;;5032773;28;20453;-74
2021/05/16 05:58:13;;;;;;;2.47;1.60;;;16.40;99.90;;;;;;5032599;28;20499;-74
2021/05/16 06:00:39;;;;;;;1.40;1.30;;;16.40;99.90;;;;;;5032526;28;20544;-75
2021/05/16 06:03:05;;;;;;;1.97;1.77;;;16.40;99.90;;;;;;5032289;28;20862;-74
2021/05/16 06:05:31;;;;;;;1.80;1.43;;;16.40;99.90;;;;;;5032309;28;20571;-75
2021/05/16 06:07:57;;;;;;;1.87;1.47;;;16.40;99.90;;;;;;5032507;28;20492;-75
2021/05/16 06:10:24;;;;;;;1.40;1.30;;;16.50;99.90;;;;;;5032623;28;20477;-75
2021/05/16 06:12:51;;;;;;;1.50;1.40;;;16.80;99.90;;;;;;5032297;28;20496;-77
2021/05/16 06:15:18;;;;;;;1.27;1.17;;;17.20;99.90;;;;;;5022997;28;20540;-75
2021/05/16 06:17:44;;;;;;;1.60;1.50;;;17.40;99.90;;;;;;5043052;27;20496;-75
2021/05/16 06:20:10;;;;;;;1.50;1.40;;;17.40;99.90;;;;;;5030189;28;20477;-75
2021/05/16 06:22:36;;;;;;;1.40;1.30;;;17.30;99.90;;;;;;5017758;28;20553;-75
2021/05/16 06:25:03;;;;;;;2.40;1.50;;;17.10;99.90;;;;;;5017984;28;20571;-75
2021/05/16 06:27:29;;;;;;;1.50;1.40;;;17.00;99.90;;;;;;5027028;28;21035;-75
2021/05/16 06:29:56;;;;;;;1.63;1.10;;;17.00;99.90;;;;;;5031996;28;20489;-74
2021/05/16 06:32:22;;;;;;;1.93;1.63;;;17.10;99.90;;;;;;5031678;28;20457;-76
2021/05/16 06:34:48;;;;;;;3.53;2.03;;;17.30;99.90;;;;;;5031624;28;20480;-76
2021/05/16 06:37:14;;;;;;;1.70;1.60;;;17.50;99.90;;;;;;5031488;28;20462;-75
2021/05/16 06:39:40;;;;;;;2.03;1.20;;;17.30;99.90;;;;;;5031727;28;20461;-75
2021/05/16 06:42:06;;;;;;;1.60;1.47;;;17.10;99.90;;;;;;5031836;28;20460;-75
2021/05/16 06:44:32;;;;;;;1.33;1.23;;;17.10;99.90;;;;;;5036676;27;20560;-75
2021/05/16 06:46:59;;;;;;;1.63;1.20;;;17.10;99.90;;;;;;5132658;27;20889;-75
2021/05/16 06:49:25;;;;;;;1.63;1.53;;;17.10;99.90;;;;;;5135591;27;20959;-76
2021/05/16 06:51:51;;;;;;;1.30;1.20;;;17.20;99.90;;;;;;5076501;27;20450;-76
2021/05/16 06:54:17;;;;;;;1.60;1.50;;;17.40;99.90;;;;;;5026430;27;21087;-75
2021/05/16 06:56:44;;;;;;;1.50;1.40;;;17.50;99.90;;;;;;5044893;27;21159;-75
2021/05/16 06:59:10;;;;;;;1.60;1.50;;;17.60;99.90;;;;;;5030249;27;21229;-77
2021/05/16 07:01:36;;;;;;;1.73;1.63;;;17.70;99.90;;;;;;5017691;28;20540;-78
2021/05/16 07:04:03;;;;;;;1.33;1.23;;;17.70;99.90;;;;;;5017615;28;20572;-78
2021/05/16 07:06:29;;;;;;;1.80;1.30;;;17.60;99.90;;;;;;5017805;28;20445;-75
2021/05/16 07:08:55;;;;;;;2.33;1.60;;;17.40;99.90;;;;;;5018044;28;20533;-75
2021/05/16 07:11:21;;;;;;;2.50;1.60;;;17.30;99.90;;;;;;5017372;28;20477;-75
2021/05/16 07:13:47;;;;;;;1.70;1.37;;;17.10;99.90;;;;;;5016476;28;20584;-75
2021/05/16 07:16:13;;;;;;;1.50;1.20;;;17.10;99.90;;;;;;5017726;28;20481;-74
2021/05/16 07:18:39;;;;;;;1.77;1.67;;;17.10;99.90;;;;;;5017604;28;20459;-75
2021/05/16 07:21:06;;;;;;;1.50;1.40;;;17.20;99.90;;;;;;5017396;27;20540;-75
2021/05/16 07:23:32;;;;;;;2.77;1.63;;;17.20;99.90;;;;;;5015166;28;20927;-75
2021/05/16 07:25:59;;;;;;;1.70;1.60;;;17.40;99.90;;;;;;5020489;28;20898;-75
2021/05/16 07:28:25;;;;;;;1.30;1.20;;;17.60;99.90;;;;;;5030862;28;20547;-77
2021/05/16 07:30:52;;;;;;;1.50;1.40;;;17.80;99.90;;;;;;5030994;28;20446;-77
2021/05/16 07:33:18;;;;;;;1.60;1.47;;;18.00;99.90;;;;;;5029496;28;20515;-78
2021/05/16 07:35:44;;;;;;;1.70;1.60;;;18.20;99.90;;;;;;5030488;28;20477;-77
2021/05/16 07:38:11;;;;;;;1.33;1.20;;;18.20;99.90;;;;;;5024896;28;20538;-78
2021/05/16 07:40:37;;;;;;;1.87;1.60;;;18.30;99.90;;;;;;5016469;28;20502;-78
2021/05/16 07:43:04;;;;;;;1.27;1.17;;;18.40;99.90;;;;;;5016597;28;20481;-78
2021/05/16 07:45:30;;;;;;;1.97;1.23;;;18.60;99.90;;;;;;5017341;28;20481;-78
2021/05/16 07:47:57;;;;;;;1.97;1.30;;;18.90;99.90;;;;;;5017185;28;20569;-78
2021/05/16 07:50:23;;;;;;;2.27;1.63;;;19.10;99.90;;;;;;5028462;28;20449;-77
2021/05/16 07:52:49;;;;;;;1.47;1.17;;;19.30;99.90;;;;;;5029376;28;20457;-77
2021/05/16 07:55:16;;;;;;;2.23;1.40;;;19.50;99.90;;;;;;5024046;28;20486;-77
2021/05/16 07:57:42;;;;;;;2.20;1.43;;;19.60;99.90;;;;;;5029899;28;20461;-78
2021/05/16 08:00:11;;;;;;;1.93;1.30;;;19.70;99.90;;;;;;5028619;28;20501;-77
2021/05/16 08:02:37;;;;;;;2.60;1.40;;;19.80;99.90;;;;;;5025094;28;20461;-78
2021/05/16 08:05:04;;;;;;;1.40;1.30;;;19.90;99.90;;;;;;5017070;28;20516;-78
2021/05/16 08:07:30;;;;;;;1.40;1.30;;;20.00;99.90;;;;;;5016793;28;20533;-78
2021/05/16 08:09:56;;;;;;;1.43;1.20;;;20.10;99.90;;;;;;5016832;28;20518;-78
2021/05/16 08:12:22;;;;;;;1.20;1.10;;;20.00;99.90;;;;;;5016293;28;20544;-78
2021/05/16 08:14:49;;;;;;;1.50;1.40;;;19.90;99.90;;;;;;5016404;28;20533;-78
2021/05/16 08:17:15;;;;;;;0.90;0.90;;;19.80;99.90;;;;;;5016461;28;20529;-78
2021/05/16 08:19:41;;;;;;;1.70;1.30;;;19.80;99.90;;;;;;5016531;28;20472;-78
2021/05/16 08:22:10;;;;;;;2.70;1.20;;;19.80;99.90;;;;;;5016408;28;20572;-78
2021/05/16 08:24:36;;;;;;;1.33;1.10;;;19.90;99.90;;;;;;5014983;28;21221;-78
2021/05/16 08:27:04;;;;;;;2.70;1.23;;;19.90;99.90;;;;;;5016524;28;21091;-78
2021/05/16 08:29:31;;;;;;;1.30;1.00;;;20.00;99.90;;;;;;5016652;28;20450;-79
2021/05/16 08:31:57;;;;;;;1.00;0.90;;;20.10;99.90;;;;;;5016704;28;20452;-79
2021/05/16 08:34:23;;;;;;;1.43;1.23;;;20.30;99.90;;;;;;5016820;28;20477;-79
2021/05/16 08:36:49;;;;;;;2.20;1.57;;;20.30;99.90;;;;;;5016034;28;20497;-79
2021/05/16 08:39:15;;;;;;;1.73;1.20;;;20.30;99.90;;;;;;5015602;28;20536;-79
2021/05/16 08:41:41;;;;;;;0.97;0.87;;;20.20;99.90;;;;;;5016718;28;20533;-79
2021/05/16 08:44:07;;;;;;;1.17;1.07;;;20.30;99.90;;;;;;5016322;28;20565;-79
2021/05/16 08:46:34;;;;;;;1.87;0.80;;;20.30;99.90;;;;;;5015858;28;20597;-77
2021/05/16 08:49:01;;;;;;;1.00;0.80;;;20.20;99.90;;;;;;5016698;28;21209;-77
2021/05/16 08:51:27;;;;;;;1.13;1.03;;;20.20;99.90;;;;;;5016441;28;20460;-77
2021/05/16 08:53:54;;;;;;;0.77;0.70;;;20.20;99.90;;;;;;5022292;28;20536;-77
2021/05/16 08:56:20;;;;;;;1.10;0.70;;;20.40;99.90;;;;;;5029638;28;20477;-77
2021/05/16 08:58:46;;;;;;;1.47;1.00;;;20.50;99.90;;;;;;5029574;28;20504;-77
2021/05/16 09:01:19;;;;;;;1.30;0.90;;;20.60;99.90;;;;;;5031911;28;20450;-77
2021/05/16 09:03:47;;;;;;;0.80;0.70;;;20.50;99.90;;;;;;5032873;28;20513;-77
2021/05/16 09:06:13;;;;;;;1.93;1.10;;;20.50;99.90;;;;;;5033276;28;20489;-77
2021/05/16 09:08:39;;;;;;;1.20;0.80;;;20.40;99.90;;;;;;5032998;28;20536;-77
2021/05/16 09:11:06;;;;;;;1.33;1.13;;;20.50;99.90;;;;;;5033132;28;20545;-78
2021/05/16 09:13:33;;;;;;;1.93;1.00;;;20.50;99.90;;;;;;5030858;28;20544;-77
2021/05/16 09:16:10;;;;;;;1.60;1.00;;;20.60;99.90;;;;;;5013425;28;20450;-77
2021/05/16 09:18:39;;;;;;;0.80;0.80;;;20.80;99.90;;;;;;5012698;28;20945;-77
2021/05/16 09:21:31;;;;;;;1.33;1.23;;;20.90;99.90;;;;;;5012965;28;20488;-77
2021/05/16 09:24:13;;;;;;;1.50;1.00;;;21.00;99.90;;;;;;5025306;28;20538;-76
2021/05/16 09:26:52;;;;;;;1.70;1.50;;;20.80;99.90;;;;;;5031378;28;20453;-77
2021/05/16 09:29:27;;;;;;;2.27;1.10;;;20.70;99.90;;;;;;5032352;28;20481;-76
2021/05/16 09:31:54;;;;;;;1.30;1.20;;;20.60;99.90;;;;;;5022402;28;20456;-77
2021/05/16 09:34:21;;;;;;;2.43;1.17;;;20.70;99.90;;;;;;5020000;28;20485;-77
2021/05/16 09:36:49;;;;;;;7.53;6.83;;;20.90;99.90;;;;;;5020127;28;21101;-75
2021/05/16 09:39:17;;;;;;;3.83;3.53;;;21.20;99.90;;;;;;5019780;28;21181;-75
2021/05/16 09:42:05;;;;;;;1.93;1.50;;;21.60;99.90;;;;;;5019714;28;20456;-75
2021/05/16 09:44:38;;;;;;;1.40;1.10;;;22.10;99.90;;;;;;5081196;27;20472;-81
2021/05/16 09:47:13;;;;;;;1.20;1.10;;;22.30;99.90;;;;;;5062213;27;20476;-80
2021/05/16 09:49:41;;;;;;;1.03;0.93;;;22.50;99.90;;;;;;5136713;27;20553;-81
2021/05/16 09:52:09;;;;;;;0.80;0.80;;;22.60;99.90;;;;;;5130963;27;20449;-84
2021/05/16 09:54:51;;;;;;;1.00;0.90;;;22.60;99.90;;;;;;5136651;27;20448;-83
2021/05/16 09:57:17;;;;;;;4.10;1.10;;;22.50;99.90;;;;;;5136804;27;20458;-84
2021/05/16 09:59:44;;;;;;;1.30;1.10;;;22.60;99.90;;;;;;5113003;27;20453;-85
2021/05/16 10:02:11;;;;;;;0.90;0.87;;;22.60;99.90;;;;;;5029238;28;20521;-85
2021/05/16 10:04:37;;;;;;;1.57;1.10;;;22.80;99.90;;;;;;5032658;27;20481;-84
2021/05/16 10:07:05;;;;;;;1.40;1.30;;;22.90;99.90;;;;;;5030588;28;20452;-83
2021/05/16 10:09:31;;;;;;;3.40;1.10;;;22.80;99.90;;;;;;5026017;28;20437;-89
2021/05/16 10:11:58;;;;;;;1.33;0.80;;;22.70;99.90;;;;;;5022868;28;20484;-88
2021/05/16 10:14:28;;;;;;;1.77;1.10;;;22.60;99.90;;;;;;5025864;28;20492;-85
2021/05/16 10:16:54;;;;;;;2.57;1.40;;;22.60;99.90;;;;;;5046406;27;20479;-87
2021/05/16 10:19:25;;;;;;;1.40;1.17;;;22.30;99.90;;;;;;5029240;28;20533;-88
2021/05/16 10:22:03;;;;;;;1.40;1.00;;;22.00;99.90;;;;;;5032304;28;20460;-87
2021/05/16 10:24:37;;;;;;;3.50;1.07;;;21.80;99.90;;;;;;5032593;28;20480;-87
2021/05/16 10:27:19;;;;;;;2.10;1.10;;;21.90;99.90;;;;;;5032510;27;20456;-88
2021/05/16 10:29:50;;;;;;;1.33;1.00;;;22.20;99.90;;;;;;5023399;28;20441;-89
2021/05/16 10:32:21;;;;;;;2.67;1.50;;;22.50;99.90;;;;;;5032536;28;20454;-80
2021/05/16 10:34:55;;;;;;;1.87;1.13;;;22.70;99.90;;;;;;5031617;28;20462;-80
2021/05/16 10:37:38;;;;;;;2.50;0.90;;;22.70;99.90;;;;;;5029801;28;20453;-81
2021/05/16 10:40:13;;;;;;;1.53;1.10;;;22.70;99.90;;;;;;5043587;27;20442;-82
2021/05/16 10:42:41;;;;;;;5.57;1.10;;;22.50;99.90;;;;;;5052541;27;20481;-83
2021/05/16 10:45:13;;;;;;;3.07;1.30;;;22.40;99.90;;;;;;5022626;28;20580;-83
2021/05/16 10:47:57;;;;;;;3.23;1.50;;;22.20;99.90;;;;;;5038822;27;20510;-83
2021/05/16 10:50:52;;;;;;;2.80;1.00;;;21.90;99.90;;;;;;5029431;28;20479;-83
2021/05/16 10:53:21;;;;;;;1.23;1.10;;;21.80;99.90;;;;;;5049427;27;20522;-83
2021/05/16 10:55:50;;;;;;;2.10;1.30;;;22.00;99.90;;;;;;5030198;27;20456;-83
2021/05/16 10:58:41;;;;;;;1.97;0.97;;;22.20;99.90;;;;;;5037277;27;20555;-84
2021/05/16 11:01:08;;;;;;;2.37;1.87;;;22.40;99.90;;;;;;5019484;27;20452;-83
2021/05/16 11:03:48;;;;;;;3.70;1.30;;;22.50;99.90;;;;;;5028184;28;20484;-83
2021/05/16 11:06:15;;;;;;;1.30;1.13;;;22.30;99.90;;;;;;5036867;27;20453;-91
2021/05/16 11:09:10;;;;;;;3.13;1.30;;;21.90;99.90;;;;;;5052306;27;20975;-83
2021/05/16 11:11:54;;;;;;;2.23;1.03;;;21.30;99.90;;;;;;5072794;27;20797;-82
2021/05/16 11:14:23;;;;;;;11.33;8.30;;;21.00;99.90;;;;;;5117089;27;20453;-83
2021/05/16 11:16:52;;;;;;;2.57;1.83;;;21.00;99.90;;;;;;5027774;27;20461;-84
2021/05/16 11:19:21;;;;;;;3.73;1.07;;;21.30;99.90;;;;;;5033882;27;20448;-82
2021/05/16 11:21:47;;;;;;;3.63;1.23;;;21.40;99.90;;;;;;5037394;27;20467;-83
2021/05/16 11:24:13;;;;;;;3.73;1.40;;;21.70;99.90;;;;;;5033377;28;20544;-83
2021/05/16 11:26:39;;;;;;;3.77;1.20;;;21.90;99.90;;;;;;5044255;27;20572;-82
2021/05/16 11:29:06;;;;;;;3.60;1.67;;;22.00;99.90;;;;;;5037343;27;20941;-83
2021/05/16 11:31:34;;;;;;;2.23;1.10;;;22.20;99.90;;;;;;5036963;27;20966;-83
2021/05/16 11:34:02;;;;;;;2.97;1.30;;;22.40;99.90;;;;;;5037109;27;20812;-83
2021/05/16 11:36:29;;;;;;;2.53;1.43;;;22.60;99.90;;;;;;5043209;27;20456;-82
2021/05/16 11:38:58;;;;;;;4.07;1.20;;;22.70;99.90;;;;;;5034449;27;20528;-84
2021/05/16 11:41:30;;;;;;;3.00;1.30;;;22.70;99.90;;;;;;5037471;27;20445;-84
2021/05/16 11:43:57;;;;;;;2.83;1.13;;;22.50;99.90;;;;;;5034606;27;20528;-85
2021/05/16 11:46:30;;;;;;;1.77;1.20;;;22.30;99.90;;;;;;5039328;27;20441;-84
2021/05/16 11:48:56;;;;;;;3.50;1.30;;;22.20;99.90;;;;;;5034134;28;20461;-83
2021/05/16 11:51:23;;;;;;;2.60;1.20;;;22.20;99.90;;;;;;5032002;27;20450;-83
2021/05/16 11:53:51;;;;;;;1.80;1.10;;;22.30;99.90;;;;;;5037420;27;20488;-83
2021/05/16 11:56:20;;;;;;;2.43;1.00;;;22.50;99.90;;;;;;5034687;27;20446;-80
2021/05/16 11:58:47;;;;;;;2.40;1.30;;;22.80;99.90;;;;;;5041769;27;20452;-79
2021/05/16 12:01:13;;;;;;;5.20;1.40;;;23.10;99.90;;;;;;5042925;27;20449;-80
2021/05/16 12:03:55;;;;;;;1.50;0.80;;;23.00;99.90;;;;;;5087072;27;20469;-81
2021/05/16 12:06:21;;;;;;;1.50;1.00;;;22.70;99.90;;;;;;5048116;27;20453;-81
2021/05/16 12:09:05;;;;;;;2.07;0.93;;;22.30;99.90;;;;;;5113774;27;20477;-81
2021/05/16 12:11:32;;;;;;;1.83;1.00;;;21.90;99.90;;;;;;5081007;27;20447;-81
2021/05/16 12:14:10;;;;;;;1.63;0.80;;;21.60;99.90;;;;;;5063416;27;20884;-80
2021/05/16 12:16:36;;;;;;;1.63;1.30;;;21.40;99.90;;;;;;5059989;27;20441;-81
2021/05/16 12:19:04;;;;;;;1.07;0.90;;;21.20;99.90;;;;;;5036380;27;20525;-81
2021/05/16 12:21:31;;;;;;;3.23;1.40;;;21.20;99.90;;;;;;5036288;27;20446;-82
2021/05/16 12:24:01;;;;;;;2.43;1.20;;;21.30;99.90;;;;;;5036308;27;21009;-81
2021/05/16 12:26:28;;;;;;;2.50;1.27;;;21.40;99.90;;;;;;5045082;27;20481;-86
2021/05/16 12:28:55;;;;;;;1.53;1.23;;;21.50;99.90;;;;;;5058097;27;20476;-80
2021/05/16 12:31:24;;;;;;;2.83;0.90;;;21.50;99.90;;;;;;5089618;27;21028;-81
2021/05/16 12:33:53;;;;;;;4.00;1.30;;;21.50;99.90;;;;;;5077386;27;20890;-81
2021/05/16 12:36:20;;;;;;;2.40;1.10;;;21.50;99.90;;;;;;5115280;27;20502;-81
2021/05/16 12:38:49;;;;;;;1.83;1.30;;;21.60;99.90;;;;;;5033062;27;20971;-81
2021/05/16 12:41:22;;;;;;;2.27;1.00;;;21.70;99.90;;;;;;5033519;28;20838;-81
2021/05/16 12:44:24;;;;;;;2.80;1.20;;;21.80;99.90;;;;;;5033995;28;20446;-81
2021/05/16 12:46:50;;;;;;;1.90;1.00;;;21.80;99.90;;;;;;5049734;27;20449;-82
2021/05/16 12:49:19;;;;;;;4.07;1.30;;;21.90;99.90;;;;;;5092360;27;20473;-82
2021/05/16 12:51:57;;;;;;;1.37;0.90;;;22.10;99.90;;;;;;5026735;28;20877;-82